Time;durP1;ratioP1;P1;durP2;ratioP2;P2;SDS_P1;SDS_P2;PMS_P1;PMS_P2;Temp;Humidity;BMP_temperature;BMP_pressure;BME280_temperature;BME280_humidity;BME280_pressure;Samples;Min_cycle;Max_cycle;Signal;HPM_P1;HPM_P2
2021/12/28 00:00:03;;;;;;;;;;;21.20;32.60;;;;;;487482;243;1074;-76
2021/12/28 00:02:05;;;;;;;;;;;20.80;32.90;;;;;;487399;243;1219;-76
2021/12/28 00:04:07;;;;;;;;;;;20.90;33.40;;;;;;487418;243;1326;-76
2021/12/28 00:06:07;;;;;;;;;;;20.70;33.30;;;;;;487414;243;1414;-77
2021/12/28 00:08:09;;;;;;;;;;;20.70;33.60;;;;;;487351;243;1127;-76
2021/12/28 00:10:10;;;;;;;;;;;20.60;33.70;;;;;;487396;243;2380;-76
2021/12/28 00:12:11;;;;;;;;;;;20.60;33.80;;;;;;487341;243;1141;-77
2021/12/28 00:14:13;;;;;;;;;;;20.50;33.90;;;;;;487452;243;963;-76
2021/12/28 00:16:30;;;;;;;;;;;20.50;34.10;;;;;;487359;243;1245;-76
2021/12/28 00:18:26;;;;;;;;;;;20.60;33.90;;;;;;487116;244;1424;-76
2021/12/28 00:20:27;;;;;;;;;;;20.50;34.10;;;;;;487446;243;1221;-76
2021/12/28 00:22:28;;;;;;;;;;;20.70;34.10;;;;;;487357;243;1200;-76
2021/12/28 00:24:30;;;;;;;;;;;20.80;33.80;;;;;;487442;243;1116;-76
2021/12/28 00:26:31;;;;;;;;;;;20.90;33.60;;;;;;487437;243;1221;-76
2021/12/28 00:28:32;;;;;;;;;;;21.10;33.70;;;;;;487418;243;2190;-76
2021/12/28 00:30:34;;;;;;;;;;;21.10;33.50;;;;;;487347;243;1306;-76
2021/12/28 00:32:35;;;;;;;;;;;21.20;33.20;;;;;;487260;243;1018;-76
2021/12/28 00:34:37;;;;;;;;;;;21.20;33.40;;;;;;487433;243;1112;-77
2021/12/28 00:36:38;;;;;;;;;;;21.20;33.50;;;;;;487359;243;1219;-76
2021/12/28 00:38:39;;;;;;;;;;;21.30;33.40;;;;;;487438;243;1051;-76
2021/12/28 00:40:41;;;;;;;;;;;21.20;33.50;;;;;;487396;243;1101;-76
2021/12/28 00:42:42;;;;;;;;;;;21.40;33.20;;;;;;487511;243;1265;-77
2021/12/28 00:44:43;;;;;;;;;;;21.70;33.00;;;;;;487464;243;1053;-77
2021/12/28 00:46:45;;;;;;;;;;;21.50;33.10;;;;;;487296;243;1222;-76
2021/12/28 00:48:46;;;;;;;;;;;21.70;33.00;;;;;;487575;243;2198;-76
2021/12/28 00:50:47;;;;;;;;;;;21.60;33.00;;;;;;487358;243;1115;-76
2021/12/28 00:52:49;;;;;;;;;;;21.70;33.00;;;;;;487511;243;1161;-76
2021/12/28 00:54:50;;;;;;;;;;;21.90;32.80;;;;;;487395;243;1232;-76
2021/12/28 00:56:51;;;;;;;;;;;22.00;32.60;;;;;;487425;243;1205;-76
2021/12/28 00:58:53;;;;;;;;;;;22.00;32.50;;;;;;487542;243;1058;-76
2021/12/28 01:00:54;;;;;;;;;;;21.60;33.10;;;;;;487439;243;1294;-76
2021/12/28 01:02:56;;;;;;;;;;;21.50;33.50;;;;;;487416;243;1142;-77
2021/12/28 01:04:57;;;;;;;;;;;21.30;33.80;;;;;;487425;243;1010;-76
2021/12/28 01:06:58;;;;;;;;;;;21.40;33.60;;;;;;487307;242;1298;-76
2021/12/28 01:08:59;;;;;;;;;;;21.60;33.50;;;;;;487352;243;2178;-76
2021/12/28 01:11:01;;;;;;;;;;;22.20;32.90;;;;;;487406;243;1067;-76
2021/12/28 01:13:02;;;;;;;;;;;21.60;33.20;;;;;;487412;243;1121;-76
2021/12/28 01:15:03;;;;;;;;;;;21.80;33.00;;;;;;487413;243;1056;-76
2021/12/28 01:17:05;;;;;;;;;;;21.70;33.20;;;;;;487312;243;1148;-76
2021/12/28 01:19:08;;;;;;;;;;;21.40;33.70;;;;;;487403;243;982;-76
2021/12/28 01:21:08;;;;;;;;;;;21.40;33.70;;;;;;487272;244;1300;-76
2021/12/28 01:23:09;;;;;;;;;;;21.90;33.50;;;;;;487321;243;1157;-76
2021/12/28 01:25:10;;;;;;;;;;;21.60;33.40;;;;;;487394;243;940;-76
2021/12/28 01:27:11;;;;;;;;;;;21.70;33.30;;;;;;487353;243;1202;-76
2021/12/28 01:29:13;;;;;;;;;;;21.80;33.50;;;;;;487452;243;2190;-76
2021/12/28 01:31:14;;;;;;;;;;;21.60;33.80;;;;;;487401;243;1274;-76
2021/12/28 01:33:16;;;;;;;;;;;21.50;33.70;;;;;;487423;243;955;-76
2021/12/28 01:35:17;;;;;;;;;;;21.70;33.50;;;;;;487422;243;1080;-76
2021/12/28 01:37:18;;;;;;;;;;;21.40;33.80;;;;;;487441;243;1166;-76
2021/12/28 01:39:20;;;;;;;;;;;21.70;33.70;;;;;;487412;243;1010;-76
2021/12/28 01:41:21;;;;;;;;;;;21.60;33.90;;;;;;487395;243;1295;-76
2021/12/28 01:43:22;;;;;;;;;;;21.30;34.10;;;;;;487407;243;1100;-76
2021/12/28 01:45:24;;;;;;;;;;;21.60;33.90;;;;;;487409;243;1066;-77
2021/12/28 01:47:25;;;;;;;;;;;21.60;33.80;;;;;;487364;243;1107;-76
2021/12/28 01:49:26;;;;;;;;;;;21.40;34.10;;;;;;487423;243;2111;-76
2021/12/28 01:51:28;;;;;;;;;;;21.50;34.10;;;;;;487457;243;1329;-76
2021/12/28 01:53:29;;;;;;;;;;;21.20;34.20;;;;;;487407;243;1205;-76
2021/12/28 01:55:30;;;;;;;;;;;21.70;33.80;;;;;;487419;243;945;-76
2021/12/28 01:57:32;;;;;;;;;;;21.80;33.40;;;;;;487398;243;1236;-76
2021/12/28 01:59:33;;;;;;;;;;;21.80;33.40;;;;;;487443;243;1011;-76
2021/12/28 02:01:34;;;;;;;;;;;21.40;34.00;;;;;;487391;243;1113;-76
2021/12/28 02:03:36;;;;;;;;;;;21.50;33.80;;;;;;487403;243;1085;-77
2021/12/28 02:05:37;;;;;;;;;;;21.40;34.10;;;;;;487428;243;1073;-77
2021/12/28 02:07:38;;;;;;;;;;;21.40;34.00;;;;;;487436;243;1229;-77
2021/12/28 02:09:40;;;;;;;;;;;21.60;34.10;;;;;;487397;243;2194;-77
2021/12/28 02:11:41;;;;;;;;;;;21.30;34.10;;;;;;487423;243;1102;-77
2021/12/28 02:13:42;;;;;;;;;;;21.40;34.20;;;;;;487393;243;1038;-77
2021/12/28 02:15:44;;;;;;;;;;;21.80;33.70;;;;;;487384;243;1150;-77
2021/12/28 02:17:45;;;;;;;;;;;21.60;34.00;;;;;;487305;243;1231;-77
2021/12/28 02:19:46;;;;;;;;;;;21.70;33.60;;;;;;487390;243;1018;-77
2021/12/28 02:21:48;;;;;;;;;;;21.80;33.80;;;;;;487284;243;1144;-77
2021/12/28 02:23:49;;;;;;;;;;;21.60;33.60;;;;;;487428;243;1165;-77
2021/12/28 02:25:50;;;;;;;;;;;21.70;33.70;;;;;;487345;243;1014;-76
2021/12/28 02:27:52;;;;;;;;;;;21.50;33.80;;;;;;487409;243;1242;-76
2021/12/28 02:29:53;;;;;;;;;;;21.90;33.30;;;;;;487401;243;2115;-76
2021/12/28 02:31:55;;;;;;;;;;;21.70;33.80;;;;;;487499;243;1090;-76
2021/12/28 02:33:56;;;;;;;;;;;21.60;33.70;;;;;;487457;244;1293;-77
2021/12/28 02:35:57;;;;;;;;;;;21.60;33.70;;;;;;487411;243;1270;-77
2021/12/28 02:37:59;;;;;;;;;;;21.50;33.90;;;;;;487362;243;1280;-77
2021/12/28 02:40:00;;;;;;;;;;;21.60;33.60;;;;;;487423;243;937;-76
2021/12/28 02:42:01;;;;;;;;;;;21.70;33.50;;;;;;487419;243;1166;-76
2021/12/28 02:44:03;;;;;;;;;;;21.80;33.70;;;;;;487439;243;1006;-76
2021/12/28 02:46:05;;;;;;;;;;;21.40;33.90;;;;;;487387;243;1180;-76
2021/12/28 02:48:05;;;;;;;;;;;21.60;33.60;;;;;;487438;244;1421;-76
2021/12/28 02:50:07;;;;;;;;;;;21.70;33.80;;;;;;487443;243;2111;-76
2021/12/28 02:52:09;;;;;;;;;;;21.30;33.80;;;;;;487358;243;1277;-76
2021/12/28 02:54:09;;;;;;;;;;;21.60;33.80;;;;;;487517;244;1481;-76
2021/12/28 02:56:11;;;;;;;;;;;21.60;33.70;;;;;;487290;243;1167;-76
2021/12/28 02:58:12;;;;;;;;;;;21.40;33.70;;;;;;487303;243;1103;-76
2021/12/28 03:00:13;;;;;;;;;;;21.40;33.90;;;;;;487385;243;969;-76
2021/12/28 03:02:15;;;;;;;;;;;21.30;34.10;;;;;;487396;243;1164;-76
2021/12/28 03:04:16;;;;;;;;;;;21.20;33.90;;;;;;487368;243;1099;-76
2021/12/28 03:06:17;;;;;;;;;;;21.20;34.10;;;;;;487386;243;1213;-76
2021/12/28 03:08:19;;;;;;;;;;;21.20;34.20;;;;;;487354;243;1134;-76
2021/12/28 03:10:20;;;;;;;;;;;21.10;34.10;;;;;;487405;243;2193;-76
2021/12/28 03:12:21;;;;;;;;;;;21.30;33.90;;;;;;487350;243;1038;-76
2021/12/28 03:14:23;;;;;;;;;;;21.10;34.10;;;;;;487430;243;1064;-76
2021/12/28 03:16:24;;;;;;;;;;;20.90;34.30;;;;;;487314;243;1370;-76
2021/12/28 03:18:25;;;;;;;;;;;21.60;33.80;;;;;;487405;243;1202;-76
2021/12/28 03:20:27;;;;;;;;;;;21.40;33.70;;;;;;487370;243;959;-76
2021/12/28 03:22:28;;;;;;;;;;;21.50;33.70;;;;;;487238;243;1084;-76
2021/12/28 03:24:29;;;;;;;;;;;21.50;33.50;;;;;;487416;243;1117;-76
2021/12/28 03:26:31;;;;;;;;;;;21.90;33.30;;;;;;487376;243;1157;-76
2021/12/28 03:28:32;;;;;;;;;;;21.50;33.30;;;;;;487431;243;1194;-76
2021/12/28 03:30:33;;;;;;;;;;;21.50;33.70;;;;;;487410;243;2136;-76
2021/12/28 03:32:35;;;;;;;;;;;21.50;33.40;;;;;;487352;243;1063;-76
2021/12/28 03:34:36;;;;;;;;;;;21.60;32.90;;;;;;487510;243;1087;-76
2021/12/28 03:36:37;;;;;;;;;;;21.90;32.70;;;;;;487343;243;1156;-76
2021/12/28 03:38:39;;;;;;;;;;;21.60;33.20;;;;;;487466;243;1120;-76
2021/12/28 03:40:40;;;;;;;;;;;21.70;32.90;;;;;;487416;243;1102;-76
2021/12/28 03:42:42;;;;;;;;;;;21.70;32.80;;;;;;487295;243;1140;-76
2021/12/28 03:44:43;;;;;;;;;;;21.80;33.10;;;;;;487469;243;1100;-76
2021/12/28 03:46:44;;;;;;;;;;;21.70;32.70;;;;;;487376;243;928;-76
2021/12/28 03:48:46;;;;;;;;;;;21.80;32.60;;;;;;487438;243;1053;-76
2021/12/28 03:50:47;;;;;;;;;;;21.80;32.80;;;;;;487390;243;2112;-76
2021/12/28 03:52:48;;;;;;;;;;;21.80;32.80;;;;;;487338;243;941;-77
2021/12/28 03:54:50;;;;;;;;;;;21.60;32.50;;;;;;487372;243;1519;-77
2021/12/28 03:56:51;;;;;;;;;;;21.70;32.60;;;;;;487380;243;1203;-76
2021/12/28 03:58:52;;;;;;;;;;;21.40;33.10;;;;;;487457;243;1043;-77
2021/12/28 04:00:54;;;;;;;;;;;21.40;33.10;;;;;;487356;243;1019;-77
2021/12/28 04:02:55;;;;;;;;;;;21.40;33.00;;;;;;487445;243;1139;-76
2021/12/28 04:04:56;;;;;;;;;;;21.20;33.40;;;;;;487452;243;953;-77
2021/12/28 04:06:58;;;;;;;;;;;21.60;33.00;;;;;;487319;243;1109;-76
2021/12/28 04:09:02;;;;;;;;;;;21.40;33.10;;;;;;487458;243;1076;-76
2021/12/28 04:11:13;;;;;;;;;;;21.40;33.10;;;;;;487201;244;2174;-76
2021/12/28 04:13:03;;;;;;;;;;;21.20;33.20;;;;;;486665;244;1365;-76
2021/12/28 04:15:04;;;;;;;;;;;21.80;32.50;;;;;;487386;243;1069;-76
2021/12/28 04:17:06;;;;;;;;;;;21.60;32.70;;;;;;487285;243;1140;-76
2021/12/28 04:19:07;;;;;;;;;;;21.50;32.70;;;;;;487356;243;1014;-77
2021/12/28 04:21:08;;;;;;;;;;;21.50;32.40;;;;;;487321;243;1212;-77
2021/12/28 04:23:09;;;;;;;;;;;21.60;32.40;;;;;;487515;243;1162;-76
2021/12/28 04:25:11;;;;;;;;;;;21.70;32.10;;;;;;487406;243;1182;-76
2021/12/28 04:27:12;;;;;;;;;;;21.40;32.40;;;;;;487373;243;1067;-77
2021/12/28 04:29:13;;;;;;;;;;;21.70;32.10;;;;;;487406;243;958;-77
2021/12/28 04:31:15;;;;;;;;;;;21.60;32.20;;;;;;487388;243;2210;-77
2021/12/28 04:33:16;;;;;;;;;;;21.40;32.40;;;;;;487459;243;1044;-77
2021/12/28 04:35:17;;;;;;;;;;;21.80;32.30;;;;;;487437;243;1048;-77
2021/12/28 04:37:19;;;;;;;;;;;21.70;32.10;;;;;;487378;243;1148;-76
2021/12/28 04:39:20;;;;;;;;;;;21.70;31.90;;;;;;487398;243;1132;-77
2021/12/28 04:41:22;;;;;;;;;;;21.60;32.00;;;;;;487316;243;1250;-77
2021/12/28 04:43:23;;;;;;;;;;;21.70;31.80;;;;;;487447;243;927;-76
2021/12/28 04:45:24;;;;;;;;;;;21.80;31.80;;;;;;487451;243;1034;-76
2021/12/28 04:47:26;;;;;;;;;;;22.00;31.90;;;;;;487357;243;1105;-77
2021/12/28 04:49:28;;;;;;;;;;;21.40;32.10;;;;;;487447;243;915;-76
2021/12/28 04:51:28;;;;;;;;;;;21.40;32.40;;;;;;487354;240;2194;-76
2021/12/28 04:53:30;;;;;;;;;;;21.40;32.60;;;;;;487392;243;933;-76
2021/12/28 04:55:31;;;;;;;;;;;21.50;32.30;;;;;;487376;243;1212;-76
2021/12/28 04:57:32;;;;;;;;;;;21.50;32.00;;;;;;487444;243;1074;-76
2021/12/28 04:59:34;;;;;;;;;;;21.60;32.00;;;;;;487478;243;951;-76
2021/12/28 05:01:36;;;;;;;;;;;21.20;32.40;;;;;;487352;243;1246;-76
2021/12/28 05:03:37;;;;;;;;;;;21.10;32.80;;;;;;487390;243;1125;-76
2021/12/28 05:05:39;;;;;;;;;;;20.90;33.10;;;;;;487415;243;1193;-76
2021/12/28 05:07:40;;;;;;;;;;;21.40;32.60;;;;;;487343;243;1040;-76
2021/12/28 05:09:41;;;;;;;;;;;20.90;32.70;;;;;;487423;243;1130;-76
2021/12/28 05:11:43;;;;;;;;;;;21.10;32.60;;;;;;487371;243;2111;-76
2021/12/28 05:13:45;;;;;;;;;;;21.10;32.70;;;;;;487430;243;1131;-76
2021/12/28 05:15:48;;;;;;;;;;;20.80;32.80;;;;;;487343;243;950;-77
2021/12/28 05:17:47;;;;;;;;;;;20.90;33.10;;;;;;487212;244;1508;-76
2021/12/28 05:19:49;;;;;;;;;;;20.60;33.20;;;;;;487299;243;1078;-77
2021/12/28 05:21:50;;;;;;;;;;;20.90;33.20;;;;;;487257;243;1210;-76
2021/12/28 05:23:51;;;;;;;;;;;20.80;32.90;;;;;;487357;243;977;-76
2021/12/28 05:25:53;;;;;;;;;;;20.80;33.00;;;;;;487381;243;1175;-77
2021/12/28 05:27:54;;;;;;;;;;;20.60;33.20;;;;;;487358;243;1088;-77
2021/12/28 05:29:55;;;;;;;;;;;20.50;33.40;;;;;;487434;243;1068;-77
2021/12/28 05:31:57;;;;;;;;;;;20.60;33.40;;;;;;487301;243;2194;-76
2021/12/28 05:33:58;;;;;;;;;;;20.60;33.30;;;;;;487428;243;942;-76
2021/12/28 05:35:59;;;;;;;;;;;20.50;33.40;;;;;;487315;243;1207;-76
2021/12/28 05:38:01;;;;;;;;;;;20.70;33.30;;;;;;487259;243;1039;-76
2021/12/28 05:40:02;;;;;;;;;;;20.70;33.20;;;;;;487375;243;1151;-76
2021/12/28 05:42:03;;;;;;;;;;;20.50;33.30;;;;;;487323;243;1079;-76
2021/12/28 05:44:05;;;;;;;;;;;20.50;33.50;;;;;;487484;243;1047;-76
2021/12/28 05:46:06;;;;;;;;;;;20.30;33.50;;;;;;487381;243;1169;-76
2021/12/28 05:48:07;;;;;;;;;;;20.30;33.60;;;;;;487460;243;1138;-76
2021/12/28 05:50:09;;;;;;;;;;;20.50;33.30;;;;;;487401;243;1003;-76
2021/12/28 05:52:10;;;;;;;;;;;20.50;33.30;;;;;;487291;243;2127;-76
2021/12/28 05:54:12;;;;;;;;;;;20.40;33.50;;;;;;487391;243;1023;-76
2021/12/28 05:56:13;;;;;;;;;;;20.40;33.50;;;;;;487249;243;1285;-76
2021/12/28 05:58:15;;;;;;;;;;;20.40;33.30;;;;;;487290;243;1114;-76
2021/12/28 06:00:17;;;;;;;;;;;20.60;33.00;;;;;;487380;243;941;-76
2021/12/28 06:02:18;;;;;;;;;;;20.60;33.30;;;;;;487281;243;1129;-76
2021/12/28 06:04:19;;;;;;;;;;;20.50;33.10;;;;;;487338;243;945;-76
2021/12/28 06:06:21;;;;;;;;;;;20.70;32.80;;;;;;487472;243;1212;-76
2021/12/28 06:08:22;;;;;;;;;;;20.90;32.70;;;;;;487328;243;990;-76
2021/12/28 06:10:23;;;;;;;;;;;20.50;32.90;;;;;;487336;243;2219;-77
2021/12/28 06:12:24;;;;;;;;;;;20.50;32.90;;;;;;487338;243;1114;-76
2021/12/28 06:14:26;;;;;;;;;;;20.60;33.00;;;;;;487436;243;925;-76
2021/12/28 06:16:27;;;;;;;;;;;20.50;33.00;;;;;;487233;243;1254;-76
2021/12/28 06:18:28;;;;;;;;;;;20.40;33.00;;;;;;487293;243;1088;-76
2021/12/28 06:20:30;;;;;;;;;;;20.30;33.30;;;;;;487320;243;939;-77
2021/12/28 06:22:31;;;;;;;;;;;20.50;32.80;;;;;;487185;243;1115;-77
2021/12/28 06:24:32;;;;;;;;;;;20.60;33.00;;;;;;487343;243;938;-77
2021/12/28 06:26:34;;;;;;;;;;;20.40;32.90;;;;;;487340;243;1200;-77
2021/12/28 06:28:35;;;;;;;;;;;20.50;33.00;;;;;;487347;243;931;-77
2021/12/28 06:30:36;;;;;;;;;;;20.30;33.20;;;;;;487349;243;2218;-77
2021/12/28 06:32:38;;;;;;;;;;;20.50;33.10;;;;;;487288;243;1054;-76
2021/12/28 06:34:39;;;;;;;;;;;20.40;33.20;;;;;;487239;243;1167;-76
2021/12/28 06:36:40;;;;;;;;;;;20.60;33.10;;;;;;487207;243;1404;-76
2021/12/28 06:38:42;;;;;;;;;;;20.50;33.00;;;;;;487240;243;1088;-76
2021/12/28 06:40:43;;;;;;;;;;;20.70;32.90;;;;;;487349;243;1173;-76
2021/12/28 06:42:44;;;;;;;;;;;20.60;33.20;;;;;;487503;243;1060;-76
2021/12/28 06:44:47;;;;;;;;;;;20.50;33.10;;;;;;487403;243;960;-76
2021/12/28 06:46:47;;;;;;;;;;;20.50;33.00;;;;;;487211;244;1450;-76
2021/12/28 06:48:48;;;;;;;;;;;20.70;32.90;;;;;;487317;243;1558;-76
2021/12/28 06:50:49;;;;;;;;;;;20.50;33.00;;;;;;487308;243;2238;-77
2021/12/28 06:52:51;;;;;;;;;;;20.50;33.20;;;;;;487213;243;1083;-76
2021/12/28 06:54:52;;;;;;;;;;;20.80;32.80;;;;;;487381;243;938;-76
2021/12/28 06:56:53;;;;;;;;;;;20.80;32.90;;;;;;487310;243;1189;-76
2021/12/28 06:58:55;;;;;;;;;;;20.70;32.80;;;;;;487317;243;950;-76
2021/12/28 07:00:56;;;;;;;;;;;20.70;32.70;;;;;;487173;243;1240;-77
2021/12/28 07:02:57;;;;;;;;;;;20.70;32.90;;;;;;487118;243;965;-76
2021/12/28 07:04:59;;;;;;;;;;;20.50;32.80;;;;;;487197;243;970;-76
2021/12/28 07:07:00;;;;;;;;;;;20.80;32.70;;;;;;487157;243;1208;-76
2021/12/28 07:09:01;;;;;;;;;;;20.70;32.60;;;;;;487177;243;1082;-76
2021/12/28 07:11:03;;;;;;;;;;;20.60;32.80;;;;;;487214;243;2135;-76
2021/12/28 07:13:04;;;;;;;;;;;20.70;32.50;;;;;;487466;244;1015;-76
2021/12/28 07:15:05;;;;;;;;;;;20.60;32.70;;;;;;487473;245;988;-76
2021/12/28 07:17:07;;;;;;;;;;;20.70;32.70;;;;;;487420;244;1148;-77
2021/12/28 07:19:10;;;;;;;;;;;20.70;32.70;;;;;;487291;243;1173;-76
2021/12/28 07:21:09;;;;;;;;;;;20.60;32.70;;;;;;487337;244;1507;-76
2021/12/28 07:23:11;;;;;;;;;;;20.60;32.80;;;;;;487261;243;1014;-76
2021/12/28 07:25:12;;;;;;;;;;;20.70;32.50;;;;;;487251;243;1042;-76
2021/12/28 07:27:14;;;;;;;;;;;20.70;32.50;;;;;;487163;243;1197;-77
2021/12/28 07:29:14;;;;;;;;;;;20.50;32.80;;;;;;487252;243;1159;-77
2021/12/28 07:31:16;;;;;;;;;;;20.40;32.90;;;;;;487230;243;2198;-76
2021/12/28 07:33:17;;;;;;;;;;;20.50;32.80;;;;;;487275;243;981;-76
2021/12/28 07:35:18;;;;;;;;;;;20.50;32.80;;;;;;487282;243;1179;-76
2021/12/28 07:37:20;;;;;;;;;;;20.50;32.80;;;;;;487291;243;1077;-76
2021/12/28 07:39:21;;;;;;;;;;;20.40;32.90;;;;;;487300;243;1079;-76
2021/12/28 07:41:22;;;;;;;;;;;20.60;32.60;;;;;;487359;243;1230;-76
2021/12/28 07:43:24;;;;;;;;;;;20.50;32.70;;;;;;487357;243;1129;-76
2021/12/28 07:45:25;;;;;;;;;;;20.50;32.60;;;;;;487278;243;1148;-76
2021/12/28 07:47:26;;;;;;;;;;;20.50;32.60;;;;;;487202;243;1099;-76
2021/12/28 07:49:28;;;;;;;;;;;20.70;32.70;;;;;;487309;243;982;-76
2021/12/28 07:51:29;;;;;;;;;;;20.70;32.40;;;;;;487226;243;2123;-76
2021/12/28 07:53:30;;;;;;;;;;;20.90;32.30;;;;;;487282;243;971;-76
2021/12/28 07:55:32;;;;;;;;;;;20.70;32.30;;;;;;487264;243;1102;-76
2021/12/28 07:57:34;;;;;;;;;;;20.80;32.40;;;;;;487316;243;1118;-76
2021/12/28 07:59:34;;;;;;;;;;;20.90;32.30;;;;;;487248;243;1413;-76
2021/12/28 08:01:36;;;;;;;;;;;20.80;32.20;;;;;;487169;243;1133;-76
2021/12/28 08:03:37;;;;;;;;;;;20.60;32.60;;;;;;487254;243;1181;-76
2021/12/28 08:05:38;;;;;;;;;;;20.70;32.50;;;;;;487226;243;1213;-76
2021/12/28 08:07:40;;;;;;;;;;;20.60;32.50;;;;;;487121;243;1082;-77
2021/12/28 08:09:41;;;;;;;;;;;21.00;32.10;;;;;;487209;243;927;-76
2021/12/28 08:11:43;;;;;;;;;;;20.70;32.50;;;;;;487132;243;2116;-76
2021/12/28 08:13:44;;;;;;;;;;;21.00;32.20;;;;;;487195;243;1205;-76
2021/12/28 08:15:45;;;;;;;;;;;21.20;32.00;;;;;;487175;243;1214;-76
2021/12/28 08:17:47;;;;;;;;;;;20.80;32.30;;;;;;487255;243;1295;-76
2021/12/28 08:19:48;;;;;;;;;;;20.90;32.50;;;;;;487238;243;1110;-76
2021/12/28 08:21:49;;;;;;;;;;;20.50;32.80;;;;;;487234;243;1061;-76
2021/12/28 08:23:51;;;;;;;;;;;20.50;32.90;;;;;;487326;243;1081;-76
2021/12/28 08:25:52;;;;;;;;;;;20.50;32.80;;;;;;487174;242;1245;-76
2021/12/28 08:27:53;;;;;;;;;;;20.50;32.90;;;;;;487185;243;1208;-77
2021/12/28 08:29:55;;;;;;;;;;;20.70;32.60;;;;;;487199;243;1040;-77
2021/12/28 08:31:56;;;;;;;;;;;20.50;32.70;;;;;;487275;243;2197;-76
2021/12/28 08:33:57;;;;;;;;;;;20.90;32.30;;;;;;487263;243;1104;-76
2021/12/28 08:35:58;;;;;;;;;;;21.00;32.30;;;;;;487246;243;1179;-76
2021/12/28 08:38:00;;;;;;;;;;;20.90;32.30;;;;;;487185;243;1038;-76
2021/12/28 08:40:01;;;;;;;;;;;20.90;32.00;;;;;;487171;243;1070;-77
2021/12/28 08:42:02;;;;;;;;;;;20.90;32.20;;;;;;487025;243;1114;-76
2021/12/28 08:44:04;;;;;;;;;;;21.10;32.00;;;;;;487163;243;1165;-77
2021/12/28 08:46:05;;;;;;;;;;;21.20;32.00;;;;;;487117;243;1205;-77
2021/12/28 08:48:06;;;;;;;;;;;21.00;32.20;;;;;;487204;243;1034;-77
2021/12/28 08:50:08;;;;;;;;;;;21.20;31.80;;;;;;487250;243;1056;-77
2021/12/28 08:52:09;;;;;;;;;;;21.10;32.00;;;;;;487290;243;2135;-76
2021/12/28 08:54:10;;;;;;;;;;;21.20;31.90;;;;;;487236;243;1051;-76
2021/12/28 08:56:12;;;;;;;;;;;21.30;32.00;;;;;;487092;243;1271;-76
2021/12/28 08:58:14;;;;;;;;;;;21.20;32.00;;;;;;487113;243;1161;-76
2021/12/28 09:00:14;;;;;;;;;;;21.30;31.90;;;;;;487363;243;1227;-76
2021/12/28 09:02:16;;;;;;;;;;;21.30;31.80;;;;;;487224;243;1011;-76
2021/12/28 09:04:17;;;;;;;;;;;21.10;31.90;;;;;;487381;243;1203;-76
2021/12/28 09:06:18;;;;;;;;;;;20.90;32.30;;;;;;487224;243;1258;-76
2021/12/28 09:08:20;;;;;;;;;;;21.10;32.00;;;;;;487202;243;1011;-77
2021/12/28 09:10:21;;;;;;;;;;;21.70;31.70;;;;;;487231;243;1076;-77
2021/12/28 09:12:22;;;;;;;;;;;21.30;31.60;;;;;;487243;243;2143;-76
2021/12/28 09:14:24;;;;;;;;;;;21.40;31.80;;;;;;487203;243;1193;-76
2021/12/28 09:16:25;;;;;;;;;;;21.30;31.50;;;;;;487130;243;1195;-76
2021/12/28 09:18:26;;;;;;;;;;;21.10;32.00;;;;;;487058;243;1274;-76
2021/12/28 09:20:28;;;;;;;;;;;21.20;31.50;;;;;;487210;243;1366;-75
2021/12/28 09:22:29;;;;;;;;;;;21.50;31.60;;;;;;487165;243;1038;-76
2021/12/28 09:24:30;;;;;;;;;;;21.20;31.80;;;;;;487246;243;1014;-76
2021/12/28 09:26:31;;;;;;;;;;;21.10;31.80;;;;;;487192;243;1356;-76
2021/12/28 09:28:33;;;;;;;;;;;21.50;31.60;;;;;;487220;243;1214;-76
2021/12/28 09:30:34;;;;;;;;;;;21.10;31.70;;;;;;487153;243;1079;-76
2021/12/28 09:32:35;;;;;;;;;;;21.50;31.40;;;;;;487099;243;2123;-75
2021/12/28 09:34:37;;;;;;;;;;;21.50;31.60;;;;;;487190;243;1056;-76
2021/12/28 09:36:40;;;;;;;;;;;21.60;31.70;;;;;;487118;243;1232;-76
2021/12/28 09:38:40;;;;;;;;;;;21.40;31.40;;;;;;487117;244;1555;-76
2021/12/28 09:40:41;;;;;;;;;;;21.40;31.70;;;;;;487176;243;964;-76
2021/12/28 09:42:43;;;;;;;;;;;21.50;31.60;;;;;;487024;243;1142;-76
2021/12/28 09:44:47;;;;;;;;;;;21.30;32.00;;;;;;487161;243;1190;-76
2021/12/28 09:46:46;;;;;;;;;;;21.40;31.60;;;;;;487011;244;1391;-75
2021/12/28 09:48:47;;;;;;;;;;;21.20;31.90;;;;;;487208;243;1091;-76
2021/12/28 09:50:48;;;;;;;;;;;21.20;31.90;;;;;;487221;243;1003;-76
2021/12/28 09:52:50;;;;;;;;;;;21.60;31.80;;;;;;487242;243;2131;-76
2021/12/28 09:54:51;;;;;;;;;;;21.30;31.70;;;;;;487179;243;977;-76
2021/12/28 09:56:54;;;;;;;;;;;21.40;31.80;;;;;;487246;243;1228;-76
2021/12/28 09:58:54;;;;;;;;;;;21.40;31.90;;;;;;487095;244;1354;-76
2021/12/28 10:00:55;;;;;;;;;;;21.60;31.60;;;;;;487174;243;1194;-76
2021/12/28 10:02:56;;;;;;;;;;;21.40;31.90;;;;;;487093;243;1349;-75
2021/12/28 10:04:58;;;;;;;;;;;21.70;31.70;;;;;;487129;243;973;-76
2021/12/28 10:06:59;;;;;;;;;;;21.90;31.60;;;;;;487013;243;1135;-76
2021/12/28 10:09:00;;;;;;;;;;;21.50;31.60;;;;;;487042;243;1045;-76
2021/12/28 10:11:02;;;;;;;;;;;21.60;31.70;;;;;;487155;243;1064;-76
2021/12/28 10:13:03;;;;;;;;;;;21.40;31.90;;;;;;487169;243;2197;-76
2021/12/28 10:15:04;;;;;;;;;;;21.40;32.20;;;;;;487185;243;1185;-76
2021/12/28 10:17:06;;;;;;;;;;;21.60;32.20;;;;;;486951;243;1105;-75
2021/12/28 10:19:07;;;;;;;;;;;21.70;32.00;;;;;;487087;243;1069;-76
2021/12/28 10:21:08;;;;;;;;;;;21.60;31.90;;;;;;487091;243;1067;-76
2021/12/28 10:23:10;;;;;;;;;;;21.80;31.80;;;;;;487119;243;1139;-76
2021/12/28 10:25:12;;;;;;;;;;;21.90;31.70;;;;;;487075;243;984;-75
2021/12/28 10:27:12;;;;;;;;;;;21.70;31.70;;;;;;487009;243;1419;-76
2021/12/28 10:29:14;;;;;;;;;;;21.90;31.90;;;;;;487183;243;1198;-76
2021/12/28 10:31:15;;;;;;;;;;;21.80;31.60;;;;;;487046;243;1079;-75
2021/12/28 10:33:16;;;;;;;;;;;21.70;31.70;;;;;;487023;243;2119;-76
2021/12/28 10:35:18;;;;;;;;;;;21.40;32.50;;;;;;487093;243;1086;-76
2021/12/28 10:37:19;;;;;;;;;;;21.10;32.80;;;;;;487239;243;1116;-75
2021/12/28 10:39:20;;;;;;;;;;;21.20;33.00;;;;;;487138;243;1225;-76
2021/12/28 10:41:22;;;;;;;;;;;21.00;33.20;;;;;;487124;243;1206;-75
2021/12/28 10:43:23;;;;;;;;;;;21.10;33.10;;;;;;487086;243;960;-75
2021/12/28 10:45:24;;;;;;;;;;;21.20;32.80;;;;;;487143;243;1185;-76
2021/12/28 10:47:26;;;;;;;;;;;21.10;33.00;;;;;;487050;243;1045;-75
2021/12/28 10:49:27;;;;;;;;;;;21.50;32.60;;;;;;487110;243;1035;-76
2021/12/28 10:51:30;;;;;;;;;;;21.10;33.10;;;;;;487097;243;1099;-76
2021/12/28 10:53:35;;;;;;;;;;;21.30;33.00;;;;;;486981;244;2119;-76
2021/12/28 10:55:31;;;;;;;;;;;21.50;33.00;;;;;;486814;244;1461;-76
2021/12/28 10:57:33;;;;;;;;;;;21.40;32.70;;;;;;487192;243;962;-76
2021/12/28 10:59:34;;;;;;;;;;;21.60;32.50;;;;;;487185;243;1254;-76
2021/12/28 11:01:37;;;;;;;;;;;21.60;32.70;;;;;;487079;243;1125;-75
2021/12/28 11:03:36;;;;;;;;;;;21.40;32.70;;;;;;487204;244;1603;-75
2021/12/28 11:05:38;;;;;;;;;;;21.60;33.00;;;;;;487080;243;1108;-76
2021/12/28 11:07:39;;;;;;;;;;;21.40;33.20;;;;;;486982;243;1120;-75
2021/12/28 11:09:40;;;;;;;;;;;21.20;33.40;;;;;;487274;243;1018;-75
2021/12/28 11:11:42;;;;;;;;;;;21.30;33.20;;;;;;487169;243;1072;-75
2021/12/28 11:13:43;;;;;;;;;;;21.40;33.10;;;;;;487081;243;2193;-76
2021/12/28 11:15:46;;;;;;;;;;;21.10;33.50;;;;;;487029;243;1295;-76
2021/12/28 11:17:46;;;;;;;;;;;21.10;33.60;;;;;;486927;244;1889;-76
2021/12/28 11:19:49;;;;;;;;;;;21.40;33.40;;;;;;487110;243;973;-76
2021/12/28 11:21:49;;;;;;;;;;;21.30;33.50;;;;;;487000;244;1335;-76
2021/12/28 11:23:50;;;;;;;;;;;21.20;33.50;;;;;;487112;243;1041;-76
2021/12/28 11:25:51;;;;;;;;;;;21.40;33.70;;;;;;487114;243;1104;-76
2021/12/28 11:27:52;;;;;;;;;;;21.10;34.00;;;;;;487126;243;1099;-76
2021/12/28 11:29:54;;;;;;;;;;;21.10;34.10;;;;;;487181;243;1139;-76
2021/12/28 11:31:55;;;;;;;;;;;21.50;33.70;;;;;;487198;244;1197;-76
2021/12/28 11:33:57;;;;;;;;;;;21.30;33.90;;;;;;487213;243;2131;-76
2021/12/28 11:35:58;;;;;;;;;;;21.20;33.90;;;;;;487050;243;1315;-76
2021/12/28 11:37:59;;;;;;;;;;;21.20;34.20;;;;;;487140;243;1030;-76
2021/12/28 11:40:01;;;;;;;;;;;21.40;33.90;;;;;;487194;243;1070;-76
2021/12/28 11:42:02;;;;;;;;;;;21.20;34.40;;;;;;487113;243;1100;-76
2021/12/28 11:44:03;;;;;;;;;;;21.00;34.50;;;;;;487221;243;1101;-76
2021/12/28 11:46:05;;;;;;;;;;;21.00;34.80;;;;;;487051;243;1271;-75
2021/12/28 11:48:06;;;;;;;;;;;21.10;35.00;;;;;;487133;243;1275;-76
2021/12/28 11:50:09;;;;;;;;;;;21.10;35.00;;;;;;487157;243;1137;-76
2021/12/28 11:52:09;;;;;;;;;;;21.20;34.60;;;;;;487121;244;1424;-76
2021/12/28 11:54:10;;;;;;;;;;;21.20;34.60;;;;;;487213;243;2186;-76
2021/12/28 11:56:11;;;;;;;;;;;21.30;34.60;;;;;;487076;243;1108;-76